createdAt,value
2023-03-18T00:02:14.769Z,9.82
2023-03-18T00:04:44.445Z,9.85
2023-03-18T00:07:14.029Z,10.20
2023-03-18T00:09:44.022Z,9.60
2023-03-18T00:12:13.778Z,9.52
2023-03-18T00:14:43.531Z,9.68
2023-03-18T00:17:13.254Z,9.15
2023-03-18T00:19:42.951Z,9.95
2023-03-18T00:22:12.667Z,9.90
2023-03-18T00:24:42.504Z,9.50
2023-03-18T00:27:12.152Z,11.10
2023-03-18T00:29:42.167Z,9.15
2023-03-18T00:32:11.769Z,9.48
2023-03-18T00:34:42.181Z,9.55
2023-03-18T00:37:12.015Z,9.50
2023-03-18T00:39:45.830Z,9.05
2023-03-18T00:42:16.338Z,9.93
2023-03-18T00:44:46.717Z,8.95
2023-03-18T00:47:16.435Z,9.15
2023-03-18T00:49:46.036Z,9.15
2023-03-18T00:52:16.021Z,9.27
2023-03-18T00:54:45.551Z,9.73
2023-03-18T00:57:15.222Z,8.60
2023-03-18T00:59:45.056Z,10.77
2023-03-18T01:02:14.901Z,10.52
2023-03-18T01:04:44.519Z,9.32
2023-03-18T01:07:14.924Z,9.15
2023-03-18T01:09:45.228Z,10.52
2023-03-18T01:12:15.407Z,9.75
2023-03-18T01:14:45.725Z,9.50
2023-03-18T01:17:15.571Z,9.30
2023-03-18T01:19:46.140Z,8.85
2023-03-18T01:22:16.107Z,9.75
2023-03-18T01:24:46.592Z,9.15
2023-03-18T01:27:16.511Z,8.77
2023-03-18T01:29:47.989Z,9.50
2023-03-18T01:32:17.962Z,9.52
2023-03-18T01:34:47.711Z,9.43
2023-03-18T01:37:17.351Z,10.32
2023-03-18T01:39:47.388Z,9.43
2023-03-18T01:42:19.805Z,9.40
2023-03-18T01:44:49.780Z,9.75
2023-03-18T01:47:19.383Z,9.13
2023-03-18T01:49:51.739Z,9.30
2023-03-18T01:52:25.170Z,9.50
2023-03-18T01:55:00.554Z,9.85
2023-03-18T01:57:32.730Z,9.77
2023-03-18T02:00:04.554Z,10.07
2023-03-18T02:02:35.590Z,9.20
2023-03-18T02:05:09.552Z,8.90
2023-03-18T02:07:40.576Z,9.80
2023-03-18T02:10:15.263Z,9.25
2023-03-18T02:12:48.622Z,8.60
2023-03-18T02:15:22.908Z,8.65
2023-03-18T02:18:07.489Z,8.48
2023-03-18T02:20:49.734Z,9.07
2023-03-18T02:24:11.031Z,8.73
2023-03-18T02:27:16.340Z,9.38
2023-03-18T02:29:47.629Z,8.98
2023-03-18T02:32:18.628Z,8.43
2023-03-18T02:34:48.557Z,8.85
2023-03-18T02:37:18.290Z,8.40
2023-03-18T02:39:48.097Z,7.95
2023-03-18T02:42:18.440Z,8.32
2023-03-18T02:44:49.752Z,9.07
2023-03-18T02:47:23.922Z,8.60
2023-03-18T02:49:54.271Z,7.88
2023-03-18T02:52:23.952Z,8.00
2023-03-18T02:54:53.612Z,7.78
2023-03-18T02:57:23.155Z,7.75
2023-03-18T02:59:52.726Z,8.40
2023-03-18T03:02:22.646Z,7.50
2023-03-18T03:04:53.343Z,8.43
2023-03-18T03:07:22.993Z,8.38
2023-03-18T03:09:52.582Z,8.18
2023-03-18T03:12:22.283Z,8.27
2023-03-18T03:14:51.847Z,8.38
2023-03-18T03:17:21.429Z,8.00
2023-03-18T03:19:50.962Z,8.93
2023-03-18T03:22:21.337Z,8.23
2023-03-18T03:24:50.890Z,8.05
2023-03-18T03:27:20.438Z,7.38
2023-03-18T03:29:50.186Z,8.25
2023-03-18T03:32:19.854Z,7.43
2023-03-18T03:34:49.463Z,7.95
2023-03-18T03:37:19.617Z,8.35
2023-03-18T03:39:50.604Z,7.60
2023-03-18T03:42:20.288Z,7.30
2023-03-18T03:44:49.912Z,7.43
2023-03-18T03:47:19.605Z,8.40
2023-03-18T03:49:49.280Z,7.65
2023-03-18T03:52:21.389Z,8.30
2023-03-18T03:54:51.882Z,6.90
2023-03-18T03:57:21.656Z,7.25
2023-03-18T03:59:51.344Z,7.20
2023-03-18T04:02:21.830Z,7.90
2023-03-18T04:04:51.895Z,7.07
2023-03-18T04:07:21.604Z,7.20
2023-03-18T04:09:51.726Z,7.78
2023-03-18T04:12:21.365Z,6.50
2023-03-18T04:14:51.871Z,6.80
2023-03-18T04:17:21.512Z,7.03
2023-03-18T04:19:51.641Z,7.00
2023-03-18T04:22:21.477Z,7.00
2023-03-18T04:24:51.122Z,6.63
2023-03-18T04:27:21.522Z,6.40
2023-03-18T04:29:51.379Z,6.53
2023-03-18T04:32:21.016Z,6.80
2023-03-18T04:34:50.554Z,6.53
2023-03-18T04:37:22.234Z,6.15
2023-03-18T04:39:52.195Z,6.50
2023-03-18T04:42:21.757Z,6.75
2023-03-18T04:44:51.344Z,6.65
2023-03-18T04:47:21.027Z,6.97
2023-03-18T04:49:51.010Z,6.85
2023-03-18T04:52:21.743Z,6.15
2023-03-18T04:54:51.723Z,6.07
2023-03-18T04:57:21.325Z,6.00
2023-03-18T04:59:50.966Z,6.32
2023-03-18T05:02:21.400Z,6.25
2023-03-18T05:04:51.171Z,6.00
2023-03-18T05:07:20.917Z,5.68
2023-03-18T05:09:50.835Z,5.80
2023-03-18T05:12:20.588Z,5.82
2023-03-18T05:14:50.177Z,5.40
2023-03-18T05:17:19.869Z,5.53
2023-03-18T05:19:50.870Z,5.60
2023-03-18T05:22:23.535Z,5.80
2023-03-18T05:24:53.288Z,6.00
2023-03-18T05:27:22.993Z,5.65
2023-03-18T05:29:52.582Z,6.05
2023-03-18T05:32:22.561Z,5.50
2023-03-18T05:34:52.259Z,5.55
2023-03-18T05:37:21.939Z,4.97
2023-03-18T05:39:51.746Z,5.38
2023-03-18T05:42:21.492Z,5.28
2023-03-18T05:44:51.322Z,5.80
2023-03-18T05:47:21.050Z,5.70
2023-03-18T05:49:50.819Z,5.47
2023-03-18T05:52:20.309Z,5.82
2023-03-18T05:54:49.959Z,5.60
2023-03-18T05:57:19.966Z,6.13
2023-03-18T05:59:49.622Z,5.70
2023-03-18T06:02:19.242Z,6.38
2023-03-18T06:04:49.733Z,6.47
2023-03-18T06:07:19.280Z,5.55
2023-03-18T06:09:48.895Z,6.30
2023-03-18T06:12:19.139Z,5.57
2023-03-18T06:14:48.774Z,5.55
2023-03-18T06:17:18.371Z,5.30
2023-03-18T06:19:48.025Z,5.25
2023-03-18T06:22:20.831Z,5.10
2023-03-18T06:24:50.526Z,5.67
2023-03-18T06:27:20.353Z,4.63
2023-03-18T06:29:50.454Z,5.20
2023-03-18T06:32:20.079Z,5.50
2023-03-18T06:34:49.860Z,5.75
2023-03-18T06:37:19.507Z,5.00
2023-03-18T06:39:49.117Z,4.97
2023-03-18T06:42:18.688Z,5.50
2023-03-18T06:44:52.186Z,5.30
2023-03-18T06:47:26.530Z,5.28
2023-03-18T06:49:56.972Z,5.53
2023-03-18T06:52:26.932Z,5.78
2023-03-18T06:54:56.488Z,6.03
2023-03-18T06:57:26.206Z,5.40
2023-03-18T06:59:55.743Z,5.68
2023-03-18T07:02:25.313Z,6.13
2023-03-18T07:04:54.891Z,5.75
2023-03-18T07:07:24.721Z,5.60
2023-03-18T07:09:54.320Z,5.82
2023-03-18T07:12:24.146Z,5.50
2023-03-18T07:14:55.041Z,5.68
2023-03-18T07:17:24.799Z,5.93
2023-03-18T07:19:56.727Z,5.70
2023-03-18T07:22:26.290Z,5.97
2023-03-18T07:24:56.373Z,6.20
2023-03-18T07:27:25.956Z,6.00
2023-03-18T07:29:55.502Z,5.90
2023-03-18T07:32:25.842Z,5.65
2023-03-18T07:34:55.501Z,6.43
2023-03-18T07:37:25.650Z,6.55
2023-03-18T07:39:55.201Z,7.18
2023-03-18T07:42:25.289Z,6.72
2023-03-18T07:44:55.075Z,7.78
2023-03-18T07:47:26.525Z,7.03
2023-03-18T07:49:56.115Z,7.13
2023-03-18T07:52:26.120Z,7.13
2023-03-18T07:54:55.643Z,6.45
2023-03-18T07:57:25.466Z,7.15
2023-03-18T07:59:55.333Z,7.22
2023-03-18T08:02:25.226Z,7.35
2023-03-18T08:04:54.960Z,7.63
2023-03-18T08:07:25.957Z,7.88
2023-03-18T08:09:55.708Z,7.55
2023-03-18T08:12:25.390Z,7.38
2023-03-18T08:14:55.119Z,6.97
2023-03-18T08:17:24.800Z,7.97
2023-03-18T08:19:54.489Z,7.28
2023-03-18T08:22:25.620Z,7.53
2023-03-18T08:24:55.305Z,6.70
2023-03-18T08:27:24.906Z,7.38
2023-03-18T08:29:54.435Z,7.45
2023-03-18T08:32:24.168Z,7.45
2023-03-18T08:34:53.952Z,7.88
2023-03-18T08:37:23.608Z,7.07
2023-03-18T08:39:53.403Z,7.95
2023-03-18T08:42:23.604Z,7.47
2023-03-18T08:44:53.219Z,7.97
2023-03-18T08:47:23.170Z,7.70
2023-03-18T08:49:53.267Z,8.38
2023-03-18T08:52:24.034Z,7.28
2023-03-18T08:54:53.623Z,7.65
2023-03-18T08:57:23.593Z,7.78
2023-03-18T08:59:53.559Z,7.80
2023-03-18T09:02:23.153Z,7.82
2023-03-18T09:04:53.218Z,7.25
2023-03-18T09:07:22.952Z,6.85
2023-03-18T09:09:52.567Z,6.72
2023-03-18T09:12:22.178Z,8.23
2023-03-18T09:14:51.683Z,7.63
2023-03-18T09:17:22.341Z,7.63
2023-03-18T09:19:54.726Z,7.53
2023-03-18T09:22:24.396Z,7.72
2023-03-18T09:24:54.068Z,8.25
2023-03-18T09:27:23.766Z,6.82
2023-03-18T09:29:53.683Z,7.53
2023-03-18T09:32:23.636Z,6.60
2023-03-18T09:34:53.345Z,6.30
2023-03-18T09:37:23.542Z,6.35
2023-03-18T09:39:53.310Z,6.55
2023-03-18T09:42:31.237Z,6.10
2023-03-18T09:45:11.364Z,6.82
2023-03-18T09:47:58.407Z,6.20
2023-03-18T09:50:43.515Z,6.10
2023-03-18T09:54:09.300Z,6.28
2023-03-18T09:56:40.992Z,6.63
2023-03-18T09:59:23.157Z,6.00
2023-03-18T10:01:58.660Z,6.05
2023-03-18T10:04:46.528Z,7.30
2023-03-18T10:07:22.074Z,6.47
2023-03-18T10:10:03.027Z,5.85
2023-03-18T10:12:39.738Z,6.22
2023-03-18T10:15:17.987Z,6.47
2023-03-18T10:18:07.498Z,5.95
2023-03-18T10:20:40.017Z,5.82
2023-03-18T10:23:59.867Z,5.65
2023-03-18T10:26:33.771Z,6.30
2023-03-18T10:29:06.050Z,6.78
2023-03-18T10:31:49.737Z,7.57
2023-03-18T10:34:24.961Z,6.30
2023-03-18T10:37:34.784Z,6.38
2023-03-18T10:40:12.594Z,6.47
2023-03-18T10:42:43.417Z,6.30
2023-03-18T10:45:22.034Z,6.63
2023-03-18T10:48:27.441Z,7.05
2023-03-18T10:51:20.009Z,7.03
2023-03-18T10:54:22.475Z,7.63
2023-03-18T10:56:54.197Z,6.78
2023-03-18T10:59:27.273Z,6.68
2023-03-18T11:02:12.025Z,7.70
2023-03-18T11:04:55.976Z,6.93
2023-03-18T11:07:28.407Z,7.25
2023-03-18T11:10:19.491Z,7.55
2023-03-18T11:12:49.004Z,6.65
2023-03-18T11:15:22.697Z,6.72
2023-03-18T11:17:53.480Z,7.22
2023-03-18T11:20:35.290Z,7.30
2023-03-18T11:23:15.081Z,7.30
2023-03-18T11:25:48.917Z,6.63
2023-03-18T11:28:24.656Z,7.55
2023-03-18T11:30:58.955Z,7.70
2023-03-18T11:33:38.816Z,6.80
2023-03-18T11:36:11.265Z,6.53
2023-03-18T11:38:41.297Z,7.38
2023-03-18T11:41:18.468Z,7.35
2023-03-18T11:44:19.196Z,7.05
2023-03-18T11:47:07.295Z,7.28
2023-03-18T11:49:37.150Z,7.57
2023-03-18T11:52:30.345Z,6.82
2023-03-18T11:55:09.702Z,8.48
2023-03-18T11:58:10.504Z,7.13
2023-03-18T12:00:43.803Z,7.55
2023-03-18T12:03:19.327Z,7.63
2023-03-18T12:05:55.059Z,8.00
2023-03-18T12:08:28.204Z,7.15
2023-03-18T12:11:17.765Z,7.47
2023-03-18T12:14:14.731Z,7.20
2023-03-18T12:16:50.342Z,8.02
2023-03-18T12:19:50.461Z,7.30
2023-03-18T12:22:30.920Z,8.05
2023-03-18T12:25:31.910Z,7.85
2023-03-18T12:28:36.026Z,8.10
2023-03-18T12:31:30.700Z,7.90
2023-03-18T12:34:04.365Z,7.82
2023-03-18T12:39:33.144Z,8.13
2023-03-18T12:42:16.771Z,7.88
2023-03-18T12:44:59.370Z,8.13
2023-03-18T12:47:36.968Z,8.18
2023-03-18T12:50:26.895Z,8.60
2023-03-18T12:53:07.050Z,9.10
2023-03-18T12:55:44.206Z,8.60
2023-03-18T12:58:30.617Z,8.68
2023-03-18T13:01:50.858Z,8.43
2023-03-18T13:04:29.950Z,7.82
2023-03-18T13:07:09.667Z,8.18
2023-03-18T13:10:04.887Z,8.20
2023-03-18T13:12:45.784Z,9.45
2023-03-18T13:15:34.288Z,8.57
2023-03-18T13:18:26.738Z,9.05
2023-03-18T13:21:00.161Z,8.43
2023-03-18T13:23:49.950Z,8.82
2023-03-18T13:26:30.746Z,8.85
2023-03-18T13:29:07.232Z,9.60
2023-03-18T13:31:48.060Z,8.93
2023-03-18T13:34:48.010Z,8.48
2023-03-18T13:37:54.372Z,9.10
2023-03-18T13:40:56.280Z,9.05
2023-03-18T13:43:27.454Z,8.70
2023-03-18T13:45:59.966Z,8.63
2023-03-18T13:48:35.655Z,8.93
2023-03-18T13:51:29.052Z,8.70
2023-03-18T13:54:10.305Z,10.75
2023-03-18T13:56:44.034Z,10.60
2023-03-18T13:59:50.077Z,10.27
2023-03-18T14:02:57.408Z,10.18
2023-03-18T14:05:41.923Z,10.35
2023-03-18T14:08:44.315Z,9.88
2023-03-18T14:11:21.612Z,9.85
2023-03-18T14:14:02.054Z,9.25
2023-03-18T14:16:53.045Z,10.18
2023-03-18T14:19:34.020Z,9.85
2023-03-18T14:22:16.913Z,9.65
2023-03-18T14:24:48.379Z,9.52
2023-03-18T14:27:23.142Z,9.68
2023-03-18T14:29:53.540Z,9.68
2023-03-18T14:32:35.042Z,9.65
2023-03-18T14:35:19.859Z,10.43
2023-03-18T14:38:16.867Z,9.50
2023-03-18T14:40:53.090Z,10.45
2023-03-18T14:43:30.796Z,9.70
2023-03-18T14:46:07.428Z,10.27
2023-03-18T14:48:37.873Z,10.15
2023-03-18T14:51:14.155Z,10.77
2023-03-18T14:54:05.737Z,11.02
2023-03-18T14:56:44.455Z,10.60
2023-03-18T14:59:19.030Z,9.85
2023-03-18T15:01:55.282Z,10.43
2023-03-18T15:04:27.533Z,11.20
2023-03-18T15:07:02.654Z,11.73
2023-03-18T15:09:36.974Z,10.55
2023-03-18T15:12:20.971Z,11.55
2023-03-18T15:17:21.666Z,10.00
2023-03-18T15:19:51.249Z,11.43
2023-03-18T15:22:30.041Z,11.75
2023-03-18T15:25:09.975Z,11.52
2023-03-18T15:27:39.944Z,11.35
2023-03-18T15:30:25.949Z,12.07
2023-03-18T15:33:07.324Z,12.60
2023-03-18T15:35:37.864Z,11.55
2023-03-18T15:38:23.412Z,11.80
2023-03-18T15:41:05.988Z,12.70
2023-03-18T15:43:46.578Z,12.38
2023-03-18T15:46:33.832Z,12.68
2023-03-18T15:49:06.015Z,12.45
2023-03-18T15:51:41.785Z,11.90
2023-03-18T15:54:32.381Z,11.80
2023-03-18T15:57:12.483Z,11.15
2023-03-18T15:59:42.272Z,12.30
2023-03-18T16:02:19.969Z,13.02
2023-03-18T16:04:50.206Z,13.25
2023-03-18T16:07:29.688Z,11.60
2023-03-18T16:09:59.239Z,11.68
2023-03-18T16:12:32.501Z,12.43
2023-03-18T16:15:05.600Z,12.18
2023-03-18T16:17:35.621Z,13.10
2023-03-18T16:20:13.303Z,11.63
2023-03-18T16:22:43.129Z,12.65
2023-03-18T16:25:15.273Z,12.45
2023-03-18T16:27:47.494Z,13.32
2023-03-18T16:30:26.200Z,12.05
2023-03-18T16:32:56.997Z,12.43
2023-03-18T16:35:29.407Z,11.95
2023-03-18T16:37:59.314Z,11.15
2023-03-18T16:40:31.491Z,13.38
2023-03-18T16:43:01.144Z,12.65
2023-03-18T16:45:35.884Z,13.23
2023-03-18T16:48:08.725Z,13.82
2023-03-18T16:50:44.220Z,12.73
2023-03-18T16:53:19.665Z,13.40
2023-03-18T16:55:52.210Z,12.77
2023-03-18T16:58:30.384Z,11.60
2023-03-18T17:01:01.397Z,10.93
2023-03-18T17:03:33.097Z,12.00
2023-03-18T17:06:02.642Z,12.20
2023-03-18T17:08:32.209Z,12.23
2023-03-18T17:11:05.981Z,12.45
2023-03-18T17:13:39.419Z,13.13
2023-03-18T17:16:20.846Z,12.30
2023-03-18T17:18:51.222Z,11.65
2023-03-18T17:21:20.926Z,12.02
2023-03-18T17:23:50.481Z,13.57
2023-03-18T17:26:20.446Z,12.75
2023-03-18T17:28:52.058Z,12.45
2023-03-18T17:31:22.493Z,12.30
2023-03-18T17:33:52.213Z,12.82
2023-03-18T17:36:22.090Z,12.55
2023-03-18T17:38:55.041Z,11.70
2023-03-18T17:41:24.800Z,12.48
2023-03-18T17:43:54.433Z,12.70
2023-03-18T17:46:24.149Z,13.65
2023-03-18T17:48:53.733Z,12.27
2023-03-18T17:51:28.966Z,13.38
2023-03-18T17:54:01.846Z,11.93
2023-03-18T17:56:31.996Z,12.73
2023-03-18T17:59:01.657Z,12.48
2023-03-18T18:01:31.636Z,13.13
2023-03-18T18:04:03.284Z,13.32
2023-03-18T18:06:35.203Z,13.45
2023-03-18T18:09:06.006Z,12.60
2023-03-18T18:11:39.411Z,12.07
2023-03-18T18:14:22.521Z,12.82
2023-03-18T18:16:52.882Z,12.63
2023-03-18T18:19:24.433Z,13.32
2023-03-18T18:21:54.982Z,13.00
2023-03-18T18:24:30.982Z,13.45
2023-03-18T18:27:01.150Z,12.52
2023-03-18T18:29:32.223Z,12.65
2023-03-18T18:32:03.870Z,15.23
2023-03-18T18:34:33.547Z,12.65
2023-03-18T18:37:03.591Z,13.32
2023-03-18T18:39:33.279Z,13.13
2023-03-18T18:42:03.018Z,13.10
2023-03-18T18:44:33.250Z,12.40
2023-03-18T18:47:02.981Z,12.93
2023-03-18T18:49:32.622Z,13.70
2023-03-18T18:52:03.767Z,12.80
2023-03-18T18:54:33.762Z,12.30
2023-03-18T18:57:03.514Z,12.55
2023-03-18T18:59:36.383Z,12.23
2023-03-18T19:02:18.881Z,13.85
2023-03-18T19:04:48.445Z,12.63
2023-03-18T19:07:18.146Z,13.38
2023-03-18T19:09:48.992Z,13.05
2023-03-18T19:12:22.025Z,12.90
2023-03-18T19:14:51.788Z,13.43
2023-03-18T19:17:23.774Z,13.10
2023-03-18T19:19:54.872Z,12.95
2023-03-18T19:22:24.528Z,13.43
2023-03-18T19:24:54.696Z,12.73
2023-03-18T19:27:32.984Z,13.40
2023-03-18T19:30:07.164Z,14.15
2023-03-18T19:32:36.748Z,12.88
2023-03-18T19:35:07.118Z,14.20
2023-03-18T19:37:37.855Z,13.00
2023-03-18T19:40:25.330Z,12.63
2023-03-18T19:42:54.887Z,14.25
2023-03-18T19:45:24.658Z,13.43
2023-03-18T19:47:55.125Z,13.57
2023-03-18T19:50:24.839Z,14.10
2023-03-18T19:52:55.684Z,13.32
2023-03-18T19:55:25.839Z,12.30
2023-03-18T19:57:56.582Z,12.45
2023-03-18T20:00:27.639Z,13.30
2023-03-18T20:02:57.276Z,12.43
2023-03-18T20:05:27.539Z,13.45
2023-03-18T20:07:57.232Z,12.98
2023-03-18T20:10:26.915Z,14.57
2023-03-18T20:12:56.535Z,13.38
2023-03-18T20:15:31.106Z,13.15
2023-03-18T20:18:02.358Z,13.65
2023-03-18T20:20:34.789Z,13.55
2023-03-18T20:23:08.674Z,13.85
2023-03-18T20:25:42.714Z,12.68
2023-03-18T20:28:27.221Z,12.57
2023-03-18T20:30:58.386Z,13.25
2023-03-18T20:33:28.464Z,13.30
2023-03-18T20:35:58.643Z,13.02
2023-03-18T20:38:42.294Z,13.88
2023-03-18T20:41:20.815Z,13.77
2023-03-18T20:43:53.386Z,12.73
2023-03-18T20:46:25.527Z,13.43
2023-03-18T20:48:55.315Z,14.32
2023-03-18T20:51:29.359Z,13.75
2023-03-18T20:54:02.226Z,13.13
2023-03-18T20:56:34.374Z,13.35
2023-03-18T20:59:05.795Z,14.18
2023-03-18T21:01:35.461Z,12.98
2023-03-18T21:04:05.890Z,14.20
2023-03-18T21:06:35.507Z,13.40
2023-03-18T21:09:06.102Z,13.13
2023-03-18T21:11:35.696Z,13.45
2023-03-18T21:14:06.055Z,13.00
2023-03-18T21:16:37.767Z,14.38
2023-03-18T21:19:07.606Z,14.48
2023-03-18T21:21:39.966Z,12.90
2023-03-18T21:24:27.519Z,13.50
2023-03-18T21:27:05.625Z,13.88
2023-03-18T21:29:35.791Z,14.10
2023-03-18T21:32:05.442Z,15.07
2023-03-18T21:34:35.039Z,14.73
2023-03-18T21:37:04.622Z,13.90
2023-03-18T21:39:34.715Z,14.20
2023-03-18T21:42:04.281Z,14.30
2023-03-18T21:44:33.801Z,13.65
2023-03-18T21:47:03.418Z,13.48
2023-03-18T21:49:33.015Z,14.38
2023-03-18T21:52:02.927Z,14.18
2023-03-18T21:54:33.326Z,14.15
2023-03-18T21:57:02.830Z,15.15
2023-03-18T21:59:32.599Z,15.75
2023-03-18T22:02:02.353Z,15.00
2023-03-18T22:04:32.094Z,15.88
2023-03-18T22:07:01.694Z,16.33
2023-03-18T22:09:31.275Z,15.45
2023-03-18T22:12:00.928Z,15.10
2023-03-18T22:14:30.544Z,14.75
2023-03-18T22:17:00.134Z,15.25
2023-03-18T22:19:29.851Z,16.73
2023-03-18T22:21:59.497Z,15.88
2023-03-18T22:24:29.056Z,15.93
2023-03-18T22:26:58.652Z,15.43
2023-03-18T22:29:28.231Z,15.13
2023-03-18T22:31:57.757Z,14.75
2023-03-18T22:34:33.886Z,15.40
2023-03-18T22:37:03.509Z,14.15
2023-03-18T22:39:33.103Z,13.82
2023-03-18T22:42:02.705Z,15.50
2023-03-18T22:44:32.477Z,14.98
2023-03-18T22:47:04.008Z,14.20
2023-03-18T22:49:33.605Z,15.80
2023-03-18T22:52:03.745Z,16.23
2023-03-18T22:54:33.332Z,14.60
2023-03-18T22:57:02.893Z,14.00
2023-03-18T22:59:32.511Z,15.35
2023-03-18T23:02:02.090Z,14.90
2023-03-18T23:04:32.038Z,14.77
2023-03-18T23:07:01.676Z,15.10
2023-03-18T23:09:31.360Z,15.13
2023-03-18T23:12:01.252Z,15.25
2023-03-18T23:14:30.782Z,15.13
2023-03-18T23:17:00.321Z,17.00
2023-03-18T23:19:29.868Z,14.80
2023-03-18T23:21:59.470Z,14.45
2023-03-18T23:24:29.008Z,14.85
2023-03-18T23:26:59.199Z,14.38
2023-03-18T23:29:28.908Z,14.55
2023-03-18T23:31:58.576Z,13.98
2023-03-18T23:34:28.135Z,14.07
2023-03-18T23:36:57.991Z,12.35
2023-03-18T23:39:27.808Z,12.98
2023-03-18T23:41:57.529Z,12.55
2023-03-18T23:44:27.412Z,12.20
2023-03-18T23:46:57.138Z,13.25
2023-03-18T23:49:29.808Z,12.52
2023-03-18T23:51:59.446Z,15.40
2023-03-18T23:54:29.418Z,12.18
2023-03-18T23:56:59.213Z,13.40
2023-03-18T23:59:28.898Z,12.82
